sensor_id;sensor_type;location;lat;lon;timestamp;P1;durP1;ratioP1;P2;durP2;ratioP2
27269;SDS011;14769;56.934;24.176;2023-02-28T00:00:29;7.10;;;3.40;;
27269;SDS011;14769;56.934;24.176;2023-02-28T00:01:32;6.00;;;3.30;;
27269;SDS011;14769;56.934;24.176;2023-02-28T00:02:40;7.03;;;3.83;;
27269;SDS011;14769;56.934;24.176;2023-02-28T00:03:43;10.30;;;4.60;;
27269;SDS011;14769;56.934;24.176;2023-02-28T00:04:45;5.50;;;2.97;;
27269;SDS011;14769;56.934;24.176;2023-02-28T00:05:54;7.10;;;2.40;;
27269;SDS011;14769;56.934;24.176;2023-02-28T00:06:58;6.32;;;2.42;;
27269;SDS011;14769;56.934;24.176;2023-02-28T00:08:00;9.15;;;2.70;;
27269;SDS011;14769;56.934;24.176;2023-02-28T00:09:02;4.97;;;2.30;;
27269;SDS011;14769;56.934;24.176;2023-02-28T00:10:05;4.25;;;1.95;;
27269;SDS011;14769;56.934;24.176;2023-02-28T00:11:09;5.95;;;2.20;;
27269;SDS011;14769;56.934;24.176;2023-02-28T00:12:13;7.35;;;2.65;;
27269;SDS011;14769;56.934;24.176;2023-02-28T00:13:15;6.63;;;2.30;;
27269;SDS011;14769;56.934;24.176;2023-02-28T00:14:17;5.50;;;2.28;;
27269;SDS011;14769;56.934;24.176;2023-02-28T00:15:19;6.43;;;2.50;;
27269;SDS011;14769;56.934;24.176;2023-02-28T00:16:22;4.95;;;2.58;;
27269;SDS011;14769;56.934;24.176;2023-02-28T00:17:24;3.92;;;2.00;;
27269;SDS011;14769;56.934;24.176;2023-02-28T00:18:26;6.47;;;2.50;;
27269;SDS011;14769;56.934;24.176;2023-02-28T00:19:31;4.40;;;2.13;;
27269;SDS011;14769;56.934;24.176;2023-02-28T00:20:33;5.28;;;2.33;;
27269;SDS011;14769;56.934;24.176;2023-02-28T00:21:35;4.97;;;2.10;;
27269;SDS011;14769;56.934;24.176;2023-02-28T00:22:37;4.60;;;1.98;;
27269;SDS011;14769;56.934;24.176;2023-02-28T00:23:40;4.45;;;2.10;;
27269;SDS011;14769;56.934;24.176;2023-02-28T00:24:42;4.88;;;2.60;;
27269;SDS011;14769;56.934;24.176;2023-02-28T00:25:44;4.97;;;1.95;;
27269;SDS011;14769;56.934;24.176;2023-02-28T00:26:47;3.05;;;1.90;;
27269;SDS011;14769;56.934;24.176;2023-02-28T00:27:48;6.38;;;2.17;;
27269;SDS011;14769;56.934;24.176;2023-02-28T00:28:51;7.45;;;2.42;;
27269;SDS011;14769;56.934;24.176;2023-02-28T00:29:54;6.50;;;2.65;;
27269;SDS011;14769;56.934;24.176;2023-02-28T00:30:56;3.95;;;2.10;;
27269;SDS011;14769;56.934;24.176;2023-02-28T00:31:58;4.43;;;2.35;;
27269;SDS011;14769;56.934;24.176;2023-02-28T00:33:00;5.45;;;2.20;;
27269;SDS011;14769;56.934;24.176;2023-02-28T00:34:02;6.47;;;2.72;;
27269;SDS011;14769;56.934;24.176;2023-02-28T00:35:04;4.57;;;2.30;;
27269;SDS011;14769;56.934;24.176;2023-02-28T00:36:08;5.30;;;2.50;;
27269;SDS011;14769;56.934;24.176;2023-02-28T00:37:12;7.20;;;2.47;;
27269;SDS011;14769;56.934;24.176;2023-02-28T00:38:14;4.88;;;2.42;;
27269;SDS011;14769;56.934;24.176;2023-02-28T00:39:17;6.13;;;2.40;;
27269;SDS011;14769;56.934;24.176;2023-02-28T00:40:19;4.82;;;2.28;;
27269;SDS011;14769;56.934;24.176;2023-02-28T00:41:21;6.55;;;2.45;;
27269;SDS011;14769;56.934;24.176;2023-02-28T00:42:23;5.10;;;2.45;;
27269;SDS011;14769;56.934;24.176;2023-02-28T00:43:25;5.47;;;2.28;;
27269;SDS011;14769;56.934;24.176;2023-02-28T00:44:28;4.97;;;2.55;;
27269;SDS011;14769;56.934;24.176;2023-02-28T00:45:30;4.93;;;2.47;;
27269;SDS011;14769;56.934;24.176;2023-02-28T00:46:32;6.60;;;2.72;;
27269;SDS011;14769;56.934;24.176;2023-02-28T00:47:34;6.32;;;2.75;;
27269;SDS011;14769;56.934;24.176;2023-02-28T00:48:36;5.68;;;2.40;;
27269;SDS011;14769;56.934;24.176;2023-02-28T00:49:38;7.07;;;2.88;;
27269;SDS011;14769;56.934;24.176;2023-02-28T00:50:40;7.68;;;3.15;;
27269;SDS011;14769;56.934;24.176;2023-02-28T00:51:42;5.65;;;2.95;;
27269;SDS011;14769;56.934;24.176;2023-02-28T00:52:44;8.02;;;2.80;;
27269;SDS011;14769;56.934;24.176;2023-02-28T00:53:46;5.10;;;2.63;;
27269;SDS011;14769;56.934;24.176;2023-02-28T00:54:48;7.72;;;3.00;;
27269;SDS011;14769;56.934;24.176;2023-02-28T00:55:50;9.23;;;2.95;;
27269;SDS011;14769;56.934;24.176;2023-02-28T00:56:52;5.13;;;2.88;;
27269;SDS011;14769;56.934;24.176;2023-02-28T00:57:57;9.35;;;3.13;;
27269;SDS011;14769;56.934;24.176;2023-02-28T00:58:58;8.43;;;3.03;;
27269;SDS011;14769;56.934;24.176;2023-02-28T01:00:00;5.97;;;2.88;;
27269;SDS011;14769;56.934;24.176;2023-02-28T01:01:03;4.85;;;2.42;;
27269;SDS011;14769;56.934;24.176;2023-02-28T01:02:05;9.57;;;3.30;;
27269;SDS011;14769;56.934;24.176;2023-02-28T01:03:07;4.97;;;2.80;;
27269;SDS011;14769;56.934;24.176;2023-02-28T01:04:09;8.82;;;3.08;;
27269;SDS011;14769;56.934;24.176;2023-02-28T01:05:11;6.80;;;2.85;;
27269;SDS011;14769;56.934;24.176;2023-02-28T01:06:13;6.80;;;2.83;;
27269;SDS011;14769;56.934;24.176;2023-02-28T01:07:15;7.55;;;2.83;;
27269;SDS011;14769;56.934;24.176;2023-02-28T01:08:17;5.40;;;2.50;;
27269;SDS011;14769;56.934;24.176;2023-02-28T01:09:19;5.63;;;2.72;;
27269;SDS011;14769;56.934;24.176;2023-02-28T01:10:21;9.73;;;3.15;;
27269;SDS011;14769;56.934;24.176;2023-02-28T01:11:23;7.97;;;3.00;;
27269;SDS011;14769;56.934;24.176;2023-02-28T01:12:25;4.38;;;2.53;;
27269;SDS011;14769;56.934;24.176;2023-02-28T01:13:30;4.20;;;2.55;;
27269;SDS011;14769;56.934;24.176;2023-02-28T01:14:31;6.57;;;2.92;;
27269;SDS011;14769;56.934;24.176;2023-02-28T01:15:33;5.18;;;2.50;;
27269;SDS011;14769;56.934;24.176;2023-02-28T01:16:36;3.50;;;2.30;;
27269;SDS011;14769;56.934;24.176;2023-02-28T01:17:37;6.80;;;2.80;;
27269;SDS011;14769;56.934;24.176;2023-02-28T01:18:39;6.15;;;2.75;;
27269;SDS011;14769;56.934;24.176;2023-02-28T01:19:42;5.78;;;2.75;;
27269;SDS011;14769;56.934;24.176;2023-02-28T01:20:44;5.30;;;2.60;;
27269;SDS011;14769;56.934;24.176;2023-02-28T01:21:47;5.43;;;2.70;;
27269;SDS011;14769;56.934;24.176;2023-02-28T01:22:49;6.47;;;3.20;;
27269;SDS011;14769;56.934;24.176;2023-02-28T01:23:51;4.88;;;2.83;;
27269;SDS011;14769;56.934;24.176;2023-02-28T01:24:53;5.90;;;2.70;;
27269;SDS011;14769;56.934;24.176;2023-02-28T01:25:55;7.25;;;3.45;;
27269;SDS011;14769;56.934;24.176;2023-02-28T01:26:57;8.15;;;3.08;;
27269;SDS011;14769;56.934;24.176;2023-02-28T01:27:59;4.90;;;2.83;;
27269;SDS011;14769;56.934;24.176;2023-02-28T01:29:01;7.22;;;2.85;;
27269;SDS011;14769;56.934;24.176;2023-02-28T01:30:02;7.40;;;3.08;;
27269;SDS011;14769;56.934;24.176;2023-02-28T01:31:05;6.28;;;2.88;;
27269;SDS011;14769;56.934;24.176;2023-02-28T01:32:07;6.95;;;3.22;;
27269;SDS011;14769;56.934;24.176;2023-02-28T01:33:09;6.28;;;3.08;;
27269;SDS011;14769;56.934;24.176;2023-02-28T01:34:11;5.35;;;2.67;;
27269;SDS011;14769;56.934;24.176;2023-02-28T01:35:13;5.78;;;3.10;;
27269;SDS011;14769;56.934;24.176;2023-02-28T01:36:17;8.50;;;3.25;;
27269;SDS011;14769;56.934;24.176;2023-02-28T01:37:23;6.72;;;2.63;;
27269;SDS011;14769;56.934;24.176;2023-02-28T01:38:25;7.35;;;3.25;;
27269;SDS011;14769;56.934;24.176;2023-02-28T01:39:28;8.65;;;2.80;;
27269;SDS011;14769;56.934;24.176;2023-02-28T01:40:30;5.18;;;2.90;;
27269;SDS011;14769;56.934;24.176;2023-02-28T01:41:33;7.25;;;3.40;;
27269;SDS011;14769;56.934;24.176;2023-02-28T01:42:35;8.60;;;3.00;;
27269;SDS011;14769;56.934;24.176;2023-02-28T01:44:55;7.05;;;3.05;;
27269;SDS011;14769;56.934;24.176;2023-02-28T01:46:31;9.73;;;3.08;;
27269;SDS011;14769;56.934;24.176;2023-02-28T01:47:39;6.05;;;2.72;;
27269;SDS011;14769;56.934;24.176;2023-02-28T01:49:47;11.77;;;4.22;;
27269;SDS011;14769;56.934;24.176;2023-02-28T01:50:50;7.63;;;3.53;;
27269;SDS011;14769;56.934;24.176;2023-02-28T01:51:53;6.63;;;3.28;;
27269;SDS011;14769;56.934;24.176;2023-02-28T01:52:58;8.48;;;3.33;;
27269;SDS011;14769;56.934;24.176;2023-02-28T01:54:03;4.75;;;2.78;;
27269;SDS011;14769;56.934;24.176;2023-02-28T01:55:15;8.35;;;3.47;;
27269;SDS011;14769;56.934;24.176;2023-02-28T01:56:21;9.38;;;2.97;;
27269;SDS011;14769;56.934;24.176;2023-02-28T01:57:40;4.55;;;2.75;;
27269;SDS011;14769;56.934;24.176;2023-02-28T01:58:47;6.25;;;2.80;;
27269;SDS011;14769;56.934;24.176;2023-02-28T01:59:57;5.93;;;2.92;;
27269;SDS011;14769;56.934;24.176;2023-02-28T02:01:08;9.55;;;3.80;;
27269;SDS011;14769;56.934;24.176;2023-02-28T02:02:22;6.35;;;2.65;;
27269;SDS011;14769;56.934;24.176;2023-02-28T02:03:25;7.57;;;3.85;;
27269;SDS011;14769;56.934;24.176;2023-02-28T02:04:36;10.32;;;4.43;;
27269;SDS011;14769;56.934;24.176;2023-02-28T02:05:41;9.13;;;4.47;;
27269;SDS011;14769;56.934;24.176;2023-02-28T02:06:49;7.38;;;3.65;;
27269;SDS011;14769;56.934;24.176;2023-02-28T02:07:52;10.55;;;3.40;;
27269;SDS011;14769;56.934;24.176;2023-02-28T02:08:57;7.78;;;3.63;;
27269;SDS011;14769;56.934;24.176;2023-02-28T02:10:00;9.68;;;4.38;;
27269;SDS011;14769;56.934;24.176;2023-02-28T02:11:04;11.30;;;4.20;;
27269;SDS011;14769;56.934;24.176;2023-02-28T02:14:33;7.85;;;3.13;;
27269;SDS011;14769;56.934;24.176;2023-02-28T02:18:01;7.55;;;3.35;;
27269;SDS011;14769;56.934;24.176;2023-02-28T02:23:44;6.60;;;3.20;;
27269;SDS011;14769;56.934;24.176;2023-02-28T02:38:06;7.88;;;3.30;;
27269;SDS011;14769;56.934;24.176;2023-02-28T02:42:06;6.82;;;2.90;;
27269;SDS011;14769;56.934;24.176;2023-02-28T02:44:48;5.63;;;2.45;;
27269;SDS011;14769;56.934;24.176;2023-02-28T02:46:02;5.53;;;2.72;;
27269;SDS011;14769;56.934;24.176;2023-02-28T02:47:10;7.93;;;2.95;;
27269;SDS011;14769;56.934;24.176;2023-02-28T02:48:17;5.20;;;2.63;;
27269;SDS011;14769;56.934;24.176;2023-02-28T02:49:24;7.38;;;3.05;;
27269;SDS011;14769;56.934;24.176;2023-02-28T02:50:31;4.45;;;2.40;;
27269;SDS011;14769;56.934;24.176;2023-02-28T02:51:38;4.40;;;2.45;;
27269;SDS011;14769;56.934;24.176;2023-02-28T02:52:44;6.70;;;2.10;;
27269;SDS011;14769;56.934;24.176;2023-02-28T02:53:54;5.05;;;2.20;;
27269;SDS011;14769;56.934;24.176;2023-02-28T02:55:03;4.88;;;2.10;;
27269;SDS011;14769;56.934;24.176;2023-02-28T04:25:19;3.42;;;1.75;;
27269;SDS011;14769;56.934;24.176;2023-02-28T04:26:21;6.15;;;2.15;;
27269;SDS011;14769;56.934;24.176;2023-02-28T04:27:23;8.55;;;2.50;;
27269;SDS011;14769;56.934;24.176;2023-02-28T04:28:25;6.68;;;2.45;;
27269;SDS011;14769;56.934;24.176;2023-02-28T04:29:28;4.97;;;1.48;;
27269;SDS011;14769;56.934;24.176;2023-02-28T10:24:05;4.22;;;1.48;;
27269;SDS011;14769;56.934;24.176;2023-02-28T10:25:29;2.90;;;1.20;;
27269;SDS011;14769;56.934;24.176;2023-02-28T10:28:41;3.10;;;1.17;;
27269;SDS011;14769;56.934;24.176;2023-02-28T10:29:50;3.47;;;1.20;;
27269;SDS011;14769;56.934;24.176;2023-02-28T10:31:18;2.45;;;1.10;;
27269;SDS011;14769;56.934;24.176;2023-02-28T11:08:14;1.80;;;1.00;;
27269;SDS011;14769;56.934;24.176;2023-02-28T11:10:43;1.70;;;1.00;;
27269;SDS011;14769;56.934;24.176;2023-02-28T11:11:57;2.58;;;1.20;;
27269;SDS011;14769;56.934;24.176;2023-02-28T11:13:03;2.35;;;1.30;;
27269;SDS011;14769;56.934;24.176;2023-02-28T11:14:06;3.53;;;1.23;;
27269;SDS011;14769;56.934;24.176;2023-02-28T11:15:25;2.63;;;1.13;;
27269;SDS011;14769;56.934;24.176;2023-02-28T11:16:34;2.35;;;0.90;;
27269;SDS011;14769;56.934;24.176;2023-02-28T11:17:40;2.28;;;1.20;;
27269;SDS011;14769;56.934;24.176;2023-02-28T11:18:46;2.60;;;1.30;;
27269;SDS011;14769;56.934;24.176;2023-02-28T11:19:55;1.55;;;1.27;;
27269;SDS011;14769;56.934;24.176;2023-02-28T11:21:02;1.95;;;1.25;;
27269;SDS011;14769;56.934;24.176;2023-02-28T11:22:06;3.00;;;1.30;;
27269;SDS011;14769;56.934;24.176;2023-02-28T11:23:11;3.90;;;1.33;;
27269;SDS011;14769;56.934;24.176;2023-02-28T11:24:24;2.67;;;0.95;;
27269;SDS011;14769;56.934;24.176;2023-02-28T11:25:33;1.70;;;1.00;;
27269;SDS011;14769;56.934;24.176;2023-02-28T11:26:42;2.75;;;1.13;;
27269;SDS011;14769;56.934;24.176;2023-02-28T11:27:48;3.17;;;1.20;;
27269;SDS011;14769;56.934;24.176;2023-02-28T11:29:09;3.38;;;1.20;;
27269;SDS011;14769;56.934;24.176;2023-02-28T11:32:12;1.73;;;1.00;;
27269;SDS011;14769;56.934;24.176;2023-02-28T11:33:28;3.33;;;1.17;;
27269;SDS011;14769;56.934;24.176;2023-02-28T11:34:34;1.27;;;0.82;;
27269;SDS011;14769;56.934;24.176;2023-02-28T11:35:49;2.30;;;1.15;;
27269;SDS011;14769;56.934;24.176;2023-02-28T11:36:55;1.80;;;0.90;;
27269;SDS011;14769;56.934;24.176;2023-02-28T11:38:09;1.48;;;0.93;;
27269;SDS011;14769;56.934;24.176;2023-02-28T11:39:16;2.55;;;1.33;;
27269;SDS011;14769;56.934;24.176;2023-02-28T11:40:21;2.22;;;1.10;;
27269;SDS011;14769;56.934;24.176;2023-02-28T11:41:50;4.13;;;1.42;;
27269;SDS011;14769;56.934;24.176;2023-02-28T11:43:05;2.63;;;0.90;;
27269;SDS011;14769;56.934;24.176;2023-02-28T11:46:56;4.25;;;1.00;;
27269;SDS011;14769;56.934;24.176;2023-02-28T11:49:30;1.58;;;1.00;;
27269;SDS011;14769;56.934;24.176;2023-02-28T11:51:59;1.45;;;0.90;;
27269;SDS011;14769;56.934;24.176;2023-02-28T11:54:46;2.75;;;1.10;;
27269;SDS011;14769;56.934;24.176;2023-02-28T11:56:16;1.52;;;0.90;;
27269;SDS011;14769;56.934;24.176;2023-02-28T11:57:41;1.77;;;0.90;;
27269;SDS011;14769;56.934;24.176;2023-02-28T11:59:14;3.78;;;1.05;;
27269;SDS011;14769;56.934;24.176;2023-02-28T12:02:05;1.10;;;0.80;;
27269;SDS011;14769;56.934;24.176;2023-02-28T12:06:21;3.95;;;0.80;;
27269;SDS011;14769;56.934;24.176;2023-02-28T12:11:38;2.05;;;0.80;;
27269;SDS011;14769;56.934;24.176;2023-02-28T12:14:41;3.25;;;0.65;;
27269;SDS011;14769;56.934;24.176;2023-02-28T12:18:21;1.23;;;1.08;;
27269;SDS011;14769;56.934;24.176;2023-02-28T12:21:01;1.10;;;0.90;;
27269;SDS011;14769;56.934;24.176;2023-02-28T12:22:26;2.33;;;1.00;;
27269;SDS011;14769;56.934;24.176;2023-02-28T12:26:31;3.35;;;1.30;;
27269;SDS011;14769;56.934;24.176;2023-02-28T12:27:36;2.30;;;0.98;;
27269;SDS011;14769;56.934;24.176;2023-02-28T12:28:42;1.73;;;0.90;;
27269;SDS011;14769;56.934;24.176;2023-02-28T12:30:03;4.82;;;1.17;;
27269;SDS011;14769;56.934;24.176;2023-02-28T12:31:24;1.40;;;0.95;;
27269;SDS011;14769;56.934;24.176;2023-02-28T12:32:32;4.15;;;1.10;;
27269;SDS011;14769;56.934;24.176;2023-02-28T12:33:44;1.70;;;0.95;;
27269;SDS011;14769;56.934;24.176;2023-02-28T12:34:50;1.00;;;0.90;;
27269;SDS011;14769;56.934;24.176;2023-02-28T12:35:58;4.53;;;0.93;;
27269;SDS011;14769;56.934;24.176;2023-02-28T12:37:04;2.65;;;1.10;;
27269;SDS011;14769;56.934;24.176;2023-02-28T12:38:55;3.00;;;1.23;;
27269;SDS011;14769;56.934;24.176;2023-02-28T12:39:54;2.40;;;1.10;;
27269;SDS011;14769;56.934;24.176;2023-02-28T12:41:04;3.00;;;1.13;;
27269;SDS011;14769;56.934;24.176;2023-02-28T12:42:19;2.47;;;1.52;;
27269;SDS011;14769;56.934;24.176;2023-02-28T12:43:34;1.70;;;1.33;;
27269;SDS011;14769;56.934;24.176;2023-02-28T12:44:49;5.40;;;1.23;;
27269;SDS011;14769;56.934;24.176;2023-02-28T12:47:25;5.57;;;1.60;;
27269;SDS011;14769;56.934;24.176;2023-02-28T12:49:13;1.30;;;1.05;;
27269;SDS011;14769;56.934;24.176;2023-02-28T12:50:04;2.75;;;1.08;;
27269;SDS011;14769;56.934;24.176;2023-02-28T12:52:14;4.25;;;1.10;;
27269;SDS011;14769;56.934;24.176;2023-02-28T12:53:23;1.30;;;0.90;;
27269;SDS011;14769;56.934;24.176;2023-02-28T12:54:41;1.15;;;0.98;;
27269;SDS011;14769;56.934;24.176;2023-02-28T12:58:36;1.48;;;0.88;;
27269;SDS011;14769;56.934;24.176;2023-02-28T12:59:48;3.60;;;1.20;;
27269;SDS011;14769;56.934;24.176;2023-02-28T13:09:24;2.55;;;1.17;;
27269;SDS011;14769;56.934;24.176;2023-02-28T13:10:37;1.70;;;1.23;;
27269;SDS011;14769;56.934;24.176;2023-02-28T13:11:49;1.45;;;1.10;;
27269;SDS011;14769;56.934;24.176;2023-02-28T13:12:58;3.70;;;1.45;;
27269;SDS011;14769;56.934;24.176;2023-02-28T13:18:25;1.00;;;0.80;;
27269;SDS011;14769;56.934;24.176;2023-02-28T13:21:06;2.55;;;1.10;;
27269;SDS011;14769;56.934;24.176;2023-02-28T13:22:16;2.85;;;1.10;;
27269;SDS011;14769;56.934;24.176;2023-02-28T13:23:56;3.30;;;1.10;;
27269;SDS011;14769;56.934;24.176;2023-02-28T13:25:49;2.08;;;0.93;;
27269;SDS011;14769;56.934;24.176;2023-02-28T13:27:51;3.00;;;1.20;;
27269;SDS011;14769;56.934;24.176;2023-02-28T13:34:30;2.53;;;1.30;;
27269;SDS011;14769;56.934;24.176;2023-02-28T13:35:37;2.08;;;1.10;;
27269;SDS011;14769;56.934;24.176;2023-02-28T13:36:47;1.10;;;1.00;;
27269;SDS011;14769;56.934;24.176;2023-02-28T13:37:54;2.38;;;1.02;;
27269;SDS011;14769;56.934;24.176;2023-02-28T13:39:45;3.20;;;1.20;;
27269;SDS011;14769;56.934;24.176;2023-02-28T13:41:21;1.45;;;0.98;;
27269;SDS011;14769;56.934;24.176;2023-02-28T13:46:10;3.20;;;1.20;;
27269;SDS011;14769;56.934;24.176;2023-02-28T13:47:19;1.55;;;0.90;;
27269;SDS011;14769;56.934;24.176;2023-02-28T13:48:26;2.85;;;1.10;;
27269;SDS011;14769;56.934;24.176;2023-02-28T13:49:39;2.50;;;1.00;;
27269;SDS011;14769;56.934;24.176;2023-02-28T13:50:42;4.13;;;1.35;;
27269;SDS011;14769;56.934;24.176;2023-02-28T13:52:06;3.30;;;1.40;;
27269;SDS011;14769;56.934;24.176;2023-02-28T13:53:30;1.55;;;1.27;;
27269;SDS011;14769;56.934;24.176;2023-02-28T13:56:30;3.83;;;2.20;;
27269;SDS011;14769;56.934;24.176;2023-02-28T13:57:42;9.43;;;4.53;;
27269;SDS011;14769;56.934;24.176;2023-02-28T14:03:35;2.33;;;1.17;;
27269;SDS011;14769;56.934;24.176;2023-02-28T14:04:48;1.70;;;1.05;;
27269;SDS011;14769;56.934;24.176;2023-02-28T14:07:43;3.28;;;1.40;;
27269;SDS011;14769;56.934;24.176;2023-02-28T14:08:56;2.15;;;1.20;;
27269;SDS011;14769;56.934;24.176;2023-02-28T14:10:00;2.97;;;1.35;;
27269;SDS011;14769;56.934;24.176;2023-02-28T14:11:08;4.72;;;1.75;;
27269;SDS011;14769;56.934;24.176;2023-02-28T14:14:03;3.95;;;1.40;;
27269;SDS011;14769;56.934;24.176;2023-02-28T14:16:43;2.75;;;1.20;;
27269;SDS011;14769;56.934;24.176;2023-02-28T14:17:51;2.30;;;1.42;;
27269;SDS011;14769;56.934;24.176;2023-02-28T14:20:12;4.18;;;1.85;;
27269;SDS011;14769;56.934;24.176;2023-02-28T14:23:50;5.10;;;1.17;;
27269;SDS011;14769;56.934;24.176;2023-02-28T14:27:05;4.28;;;1.42;;
27269;SDS011;14769;56.934;24.176;2023-02-28T14:31:37;3.88;;;1.25;;
27269;SDS011;14769;56.934;24.176;2023-02-28T14:32:43;3.90;;;1.38;;
27269;SDS011;14769;56.934;24.176;2023-02-28T14:34:31;3.80;;;1.80;;
27269;SDS011;14769;56.934;24.176;2023-02-28T14:36:00;3.65;;;1.48;;
27269;SDS011;14769;56.934;24.176;2023-02-28T14:37:09;4.25;;;1.98;;
27269;SDS011;14769;56.934;24.176;2023-02-28T14:38:27;4.50;;;2.40;;
27269;SDS011;14769;56.934;24.176;2023-02-28T14:39:34;14.48;;;8.63;;
27269;SDS011;14769;56.934;24.176;2023-02-28T14:40:38;2.40;;;1.33;;
27269;SDS011;14769;56.934;24.176;2023-02-28T14:41:41;3.05;;;2.17;;
27269;SDS011;14769;56.934;24.176;2023-02-28T14:42:54;4.85;;;2.97;;
27269;SDS011;14769;56.934;24.176;2023-02-28T14:44:01;9.52;;;6.47;;
27269;SDS011;14769;56.934;24.176;2023-02-28T14:45:17;10.85;;;7.90;;
27269;SDS011;14769;56.934;24.176;2023-02-28T14:46:25;21.77;;;13.85;;
27269;SDS011;14769;56.934;24.176;2023-02-28T14:47:39;24.10;;;15.82;;
27269;SDS011;14769;56.934;24.176;2023-02-28T14:48:48;20.77;;;15.02;;
27269;SDS011;14769;56.934;24.176;2023-02-28T14:49:54;27.17;;;17.20;;
27269;SDS011;14769;56.934;24.176;2023-02-28T14:50:59;27.67;;;18.25;;
27269;SDS011;14769;56.934;24.176;2023-02-28T14:53:15;30.40;;;18.20;;
27269;SDS011;14769;56.934;24.176;2023-02-28T14:54:20;28.42;;;19.13;;
27269;SDS011;14769;56.934;24.176;2023-02-28T14:55:31;25.70;;;18.67;;
27269;SDS011;14769;56.934;24.176;2023-02-28T14:56:37;31.13;;;20.70;;
27269;SDS011;14769;56.934;24.176;2023-02-28T14:58:02;32.20;;;21.10;;
27269;SDS011;14769;56.934;24.176;2023-02-28T14:59:05;30.75;;;20.98;;
27269;SDS011;14769;56.934;24.176;2023-02-28T15:00:29;27.67;;;17.63;;
27269;SDS011;14769;56.934;24.176;2023-02-28T15:01:33;25.80;;;18.50;;
27269;SDS011;14769;56.934;24.176;2023-02-28T15:02:50;27.92;;;19.15;;
27269;SDS011;14769;56.934;24.176;2023-02-28T15:04:26;29.48;;;19.92;;
27269;SDS011;14769;56.934;24.176;2023-02-28T15:05:30;44.83;;;30.55;;
27269;SDS011;14769;56.934;24.176;2023-02-28T15:06:36;32.85;;;21.13;;
27269;SDS011;14769;56.934;24.176;2023-02-28T15:08:13;25.02;;;18.85;;
27269;SDS011;14769;56.934;24.176;2023-02-28T15:09:28;29.23;;;18.60;;
27269;SDS011;14769;56.934;24.176;2023-02-28T15:11:36;24.95;;;15.73;;
27269;SDS011;14769;56.934;24.176;2023-02-28T15:12:48;22.85;;;15.93;;
27269;SDS011;14769;56.934;24.176;2023-02-28T15:14:00;19.10;;;13.40;;
27269;SDS011;14769;56.934;24.176;2023-02-28T15:15:04;23.67;;;16.02;;
27269;SDS011;14769;56.934;24.176;2023-02-28T15:16:11;25.83;;;15.50;;
27269;SDS011;14769;56.934;24.176;2023-02-28T15:17:37;18.50;;;12.60;;
27269;SDS011;14769;56.934;24.176;2023-02-28T15:19:50;9.13;;;6.20;;
27269;SDS011;14769;56.934;24.176;2023-02-28T15:20:54;9.30;;;6.50;;
27269;SDS011;14769;56.934;24.176;2023-02-28T15:21:59;10.38;;;5.68;;
27269;SDS011;14769;56.934;24.176;2023-02-28T15:23:05;6.30;;;4.63;;
27269;SDS011;14769;56.934;24.176;2023-02-28T15:24:09;5.03;;;3.22;;
27269;SDS011;14769;56.934;24.176;2023-02-28T15:25:25;7.75;;;3.55;;
27269;SDS011;14769;56.934;24.176;2023-02-28T15:26:37;6.07;;;2.78;;
27269;SDS011;14769;56.934;24.176;2023-02-28T15:27:44;7.43;;;2.97;;
27269;SDS011;14769;56.934;24.176;2023-02-28T15:28:52;7.68;;;3.55;;
27269;SDS011;14769;56.934;24.176;2023-02-28T15:30:08;5.20;;;2.30;;
27269;SDS011;14769;56.934;24.176;2023-02-28T15:31:26;4.90;;;1.67;;
27269;SDS011;14769;56.934;24.176;2023-02-28T15:33:03;4.50;;;2.00;;
27269;SDS011;14769;56.934;24.176;2023-02-28T15:34:25;4.18;;;1.70;;
27269;SDS011;14769;56.934;24.176;2023-02-28T15:35:46;4.18;;;1.90;;
27269;SDS011;14769;56.934;24.176;2023-02-28T15:36:49;4.70;;;1.70;;
27269;SDS011;14769;56.934;24.176;2023-02-28T15:38:55;4.97;;;2.05;;
27269;SDS011;14769;56.934;24.176;2023-02-28T15:40:16;5.70;;;1.90;;
27269;SDS011;14769;56.934;24.176;2023-02-28T15:41:38;5.95;;;1.88;;
27269;SDS011;14769;56.934;24.176;2023-02-28T15:42:40;5.20;;;1.77;;
27269;SDS011;14769;56.934;24.176;2023-02-28T15:43:57;3.67;;;1.70;;
27269;SDS011;14769;56.934;24.176;2023-02-28T15:45:28;3.00;;;1.67;;
27269;SDS011;14769;56.934;24.176;2023-02-28T15:46:39;5.22;;;2.10;;
27269;SDS011;14769;56.934;24.176;2023-02-28T15:47:58;4.57;;;1.70;;
27269;SDS011;14769;56.934;24.176;2023-02-28T15:49:19;3.92;;;1.77;;
27269;SDS011;14769;56.934;24.176;2023-02-28T15:50:23;3.40;;;1.88;;
27269;SDS011;14769;56.934;24.176;2023-02-28T15:51:33;3.95;;;1.27;;
27269;SDS011;14769;56.934;24.176;2023-02-28T15:52:44;4.65;;;1.73;;
27269;SDS011;14769;56.934;24.176;2023-02-28T15:54:04;4.45;;;1.42;;
27269;SDS011;14769;56.934;24.176;2023-02-28T15:55:23;4.00;;;1.80;;
27269;SDS011;14769;56.934;24.176;2023-02-28T15:56:28;5.00;;;1.35;;
27269;SDS011;14769;56.934;24.176;2023-02-28T15:57:33;4.43;;;1.60;;
27269;SDS011;14769;56.934;24.176;2023-02-28T15:58:35;5.15;;;1.45;;
27269;SDS011;14769;56.934;24.176;2023-02-28T15:59:38;3.25;;;0.98;;
27269;SDS011;14769;56.934;24.176;2023-02-28T16:00:43;3.25;;;1.35;;
27269;SDS011;14769;56.934;24.176;2023-02-28T16:03:23;3.38;;;1.40;;
27269;SDS011;14769;56.934;24.176;2023-02-28T16:04:26;5.53;;;1.40;;
27269;SDS011;14769;56.934;24.176;2023-02-28T16:05:32;4.85;;;1.42;;
27269;SDS011;14769;56.934;24.176;2023-02-28T16:06:38;3.17;;;1.17;;
27269;SDS011;14769;56.934;24.176;2023-02-28T16:07:43;6.45;;;1.80;;
27269;SDS011;14769;56.934;24.176;2023-02-28T16:08:46;4.00;;;1.30;;
27269;SDS011;14769;56.934;24.176;2023-02-28T16:09:53;5.05;;;1.98;;
27269;SDS011;14769;56.934;24.176;2023-02-28T16:10:55;3.40;;;1.30;;
27269;SDS011;14769;56.934;24.176;2023-02-28T16:12:01;4.40;;;1.70;;
27269;SDS011;14769;56.934;24.176;2023-02-28T16:13:04;5.35;;;1.70;;
27269;SDS011;14769;56.934;24.176;2023-02-28T16:14:11;7.82;;;2.30;;
27269;SDS011;14769;56.934;24.176;2023-02-28T16:15:20;5.15;;;1.42;;
27269;SDS011;14769;56.934;24.176;2023-02-28T16:16:23;7.25;;;1.98;;
27269;SDS011;14769;56.934;24.176;2023-02-28T16:17:28;5.50;;;1.80;;
27269;SDS011;14769;56.934;24.176;2023-02-28T16:18:33;4.38;;;1.50;;
27269;SDS011;14769;56.934;24.176;2023-02-28T16:19:35;3.83;;;1.48;;
27269;SDS011;14769;56.934;24.176;2023-02-28T16:20:37;5.70;;;1.58;;
27269;SDS011;14769;56.934;24.176;2023-02-28T16:21:39;5.07;;;1.70;;
27269;SDS011;14769;56.934;24.176;2023-02-28T16:22:41;4.30;;;1.70;;
27269;SDS011;14769;56.934;24.176;2023-02-28T16:23:44;2.35;;;1.50;;
27269;SDS011;14769;56.934;24.176;2023-02-28T16:24:52;5.07;;;2.10;;
27269;SDS011;14769;56.934;24.176;2023-02-28T16:25:54;4.85;;;1.83;;
27269;SDS011;14769;56.934;24.176;2023-02-28T16:26:56;2.85;;;1.50;;
27269;SDS011;14769;56.934;24.176;2023-02-28T16:28:02;5.88;;;1.90;;
27269;SDS011;14769;56.934;24.176;2023-02-28T16:29:05;3.97;;;1.30;;
27269;SDS011;14769;56.934;24.176;2023-02-28T16:30:09;4.05;;;1.38;;
27269;SDS011;14769;56.934;24.176;2023-02-28T16:31:25;5.50;;;1.48;;
27269;SDS011;14769;56.934;24.176;2023-02-28T16:32:27;4.40;;;1.65;;
27269;SDS011;14769;56.934;24.176;2023-02-28T16:33:33;6.90;;;2.55;;
27269;SDS011;14769;56.934;24.176;2023-02-28T16:34:36;3.63;;;1.30;;
27269;SDS011;14769;56.934;24.176;2023-02-28T16:35:42;3.28;;;1.23;;
27269;SDS011;14769;56.934;24.176;2023-02-28T16:36:46;2.67;;;1.30;;
27269;SDS011;14769;56.934;24.176;2023-02-28T16:37:50;3.70;;;1.35;;
27269;SDS011;14769;56.934;24.176;2023-02-28T16:38:57;2.90;;;1.20;;
27269;SDS011;14769;56.934;24.176;2023-02-28T16:40:00;6.72;;;1.60;;